Time;durP1;ratioP1;P1;durP2;ratioP2;P2;SDS_P1;SDS_P2;PMS_P1;PMS_P2;Temp;Humidity;BMP_temperature;BMP_pressure;BME280_temperature;BME280_humidity;BME280_pressure;Samples;Min_cycle;Max_cycle;Signal;HPM_P1;HPM_P2
2023/03/30 00:01:31;;;;;;;3.57;2.00;;;15.00;89.10;;;;;;5056549;28;20449;-56
2023/03/30 00:03:58;;;;;;;6.10;2.00;;;14.90;88.90;;;;;;5056251;28;20468;-56
2023/03/30 00:06:25;;;;;;;8.20;2.00;;;14.90;88.90;;;;;;5056242;28;20971;-56
2023/03/30 00:08:56;;;;;;;6.63;2.03;;;14.90;88.60;;;;;;5056365;28;20452;-56
2023/03/30 00:11:24;;;;;;;4.57;2.23;;;15.00;88.60;;;;;;5056362;28;20860;-56
2023/03/30 00:13:51;;;;;;;6.17;2.20;;;15.00;88.40;;;;;;5056309;28;20472;-56
2023/03/30 00:16:19;;;;;;;9.00;2.30;;;15.00;88.30;;;;;;5056027;28;21017;-56
2023/03/30 00:18:46;;;;;;;3.73;1.90;;;15.00;88.30;;;;;;5056195;28;20463;-56
2023/03/30 00:21:16;;;;;;;10.93;2.43;;;14.90;88.10;;;;;;5056311;28;20451;-56
2023/03/30 00:23:46;;;;;;;3.40;2.10;;;14.90;88.20;;;;;;5056443;28;20465;-56
2023/03/30 00:26:13;;;;;;;5.97;2.50;;;14.90;88.80;;;;;;5056645;28;20442;-56
2023/03/30 00:28:41;;;;;;;8.63;2.37;;;14.80;88.40;;;;;;5056947;28;20452;-56
2023/03/30 00:31:09;;;;;;;5.03;3.10;;;14.80;88.60;;;;;;5056372;28;20457;-56
2023/03/30 00:33:36;;;;;;;2.87;2.50;;;14.70;88.40;;;;;;5056223;28;20473;-56
2023/03/30 00:36:03;;;;;;;3.03;1.80;;;14.70;87.90;;;;;;5056077;28;20953;-56
2023/03/30 00:38:29;;;;;;;7.23;2.10;;;14.70;87.80;;;;;;5056161;28;20454;-56
2023/03/30 00:40:59;;;;;;;4.20;1.90;;;14.80;88.00;;;;;;5056127;28;20440;-56
2023/03/30 00:43:27;;;;;;;6.07;2.10;;;14.80;87.60;;;;;;5055931;28;20476;-56
2023/03/30 00:45:55;;;;;;;4.70;1.57;;;14.90;87.20;;;;;;5056007;28;20491;-56
2023/03/30 00:48:26;;;;;;;5.30;1.60;;;14.90;86.90;;;;;;5055345;28;20500;-56
2023/03/30 00:50:55;;;;;;;4.70;1.70;;;14.90;87.40;;;;;;5055623;28;20530;-56
2023/03/30 00:53:25;;;;;;;7.20;2.50;;;15.00;86.20;;;;;;5056405;28;20950;-56
2023/03/30 00:55:53;;;;;;;6.93;1.97;;;15.10;85.70;;;;;;5055272;28;20995;-56
2023/03/30 00:58:21;;;;;;;3.77;1.80;;;15.10;85.50;;;;;;5055516;28;20476;-56
2023/03/30 01:00:49;;;;;;;5.80;1.73;;;15.10;85.00;;;;;;5055512;28;20458;-56
2023/03/30 01:03:23;;;;;;;3.77;2.07;;;15.20;85.00;;;;;;5055802;28;20469;-56
2023/03/30 01:05:54;;;;;;;3.50;1.60;;;15.20;84.70;;;;;;5056242;28;20884;-57
2023/03/30 01:08:22;;;;;;;8.97;1.87;;;15.30;84.50;;;;;;5055397;28;20958;-57
2023/03/30 01:10:50;;;;;;;6.23;2.57;;;15.30;84.30;;;;;;5055194;28;20496;-57
2023/03/30 01:13:18;;;;;;;3.43;1.73;;;15.30;84.20;;;;;;5055211;28;20519;-56
2023/03/30 01:16:00;;;;;;;8.27;1.73;;;15.30;84.00;;;;;;5054879;28;20513;-56
2023/03/30 01:18:35;;;;;;;7.20;2.40;;;15.30;84.20;;;;;;5055234;28;20440;-57
2023/03/30 01:21:33;;;;;;;10.57;2.03;;;15.40;84.40;;;;;;5054844;28;20506;-56
2023/03/30 01:24:41;;;;;;;5.50;1.80;;;15.40;84.20;;;;;;5047920;28;20550;-56
2023/03/30 01:27:18;;;;;;;8.97;2.73;;;15.40;84.60;;;;;;5054833;28;20449;-56
2023/03/30 01:30:02;;;;;;;8.33;2.80;;;15.30;84.80;;;;;;5054708;28;20437;-56
2023/03/30 01:32:57;;;;;;;10.43;2.50;;;15.30;84.90;;;;;;5054583;28;20433;-56
2023/03/30 01:36:00;;;;;;;7.30;2.30;;;15.40;84.90;;;;;;5054806;28;20469;-56
2023/03/30 01:39:03;;;;;;;8.50;2.57;;;15.40;84.80;;;;;;5054424;28;20472;-56
2023/03/30 01:41:35;;;;;;;7.20;2.17;;;15.40;84.60;;;;;;5053001;28;20449;-56
2023/03/30 01:44:11;;;;;;;6.23;1.53;;;15.50;84.70;;;;;;5054723;28;20893;-56
2023/03/30 01:46:43;;;;;;;7.20;2.23;;;15.50;84.70;;;;;;5055341;28;20442;-56
2023/03/30 01:49:15;;;;;;;8.00;2.27;;;15.50;84.60;;;;;;5054518;28;20911;-56
2023/03/30 01:51:47;;;;;;;6.80;2.10;;;15.40;84.90;;;;;;5054488;28;20434;-56
2023/03/30 01:54:19;;;;;;;7.60;2.13;;;15.40;85.20;;;;;;5054518;28;20829;-56
2023/03/30 01:56:50;;;;;;;5.83;2.37;;;15.50;85.30;;;;;;5054412;28;20477;-56
2023/03/30 01:59:24;;;;;;;7.23;2.10;;;15.40;85.50;;;;;;5054334;28;20491;-56
2023/03/30 02:01:52;;;;;;;6.53;1.90;;;15.40;85.80;;;;;;5054042;28;20438;-56
2023/03/30 02:04:22;;;;;;;3.33;1.90;;;15.40;86.00;;;;;;5054153;28;20469;-56
2023/03/30 02:06:54;;;;;;;6.83;1.73;;;15.40;86.40;;;;;;5054112;28;20449;-56
2023/03/30 02:09:22;;;;;;;4.80;2.33;;;15.40;86.60;;;;;;5054188;28;20430;-56
2023/03/30 02:11:52;;;;;;;7.70;2.63;;;15.40;86.80;;;;;;5054102;28;20544;-56
2023/03/30 02:14:26;;;;;;;10.23;2.33;;;15.40;86.50;;;;;;5054314;28;20476;-56
2023/03/30 02:16:57;;;;;;;8.30;2.93;;;15.50;86.40;;;;;;5053975;28;20522;-56
2023/03/30 02:19:24;;;;;;;5.90;2.17;;;15.60;85.80;;;;;;5053760;28;20442;-56
2023/03/30 02:21:51;;;;;;;4.03;1.83;;;15.50;85.80;;;;;;5053947;28;20449;-56
2023/03/30 02:24:22;;;;;;;6.27;2.03;;;15.60;85.70;;;;;;5053622;28;21030;-56
2023/03/30 02:26:52;;;;;;;5.30;2.40;;;15.60;85.30;;;;;;5053895;28;20437;-57
2023/03/30 02:29:21;;;;;;;7.90;2.33;;;15.60;85.10;;;;;;5053853;28;20441;-56
2023/03/30 02:31:50;;;;;;;5.20;2.07;;;15.70;85.20;;;;;;5053790;28;20453;-56
2023/03/30 02:34:28;;;;;;;7.57;2.60;;;15.60;85.20;;;;;;5053948;28;20465;-56
2023/03/30 02:37:18;;;;;;;6.03;2.30;;;15.60;84.80;;;;;;5053665;28;20470;-56
2023/03/30 02:40:00;;;;;;;7.70;1.83;;;15.60;84.70;;;;;;5053314;28;20497;-56
2023/03/30 02:42:45;;;;;;;4.80;2.13;;;15.70;84.80;;;;;;5053584;28;20473;-57
2023/03/30 02:45:30;;;;;;;7.23;2.67;;;15.70;84.90;;;;;;5053275;28;20911;-56
2023/03/30 02:48:12;;;;;;;9.80;2.17;;;15.70;84.70;;;;;;5053589;28;20440;-56
2023/03/30 02:50:45;;;;;;;10.13;2.33;;;15.60;84.60;;;;;;5053180;28;20908;-56
2023/03/30 02:53:23;;;;;;;6.27;2.10;;;15.70;84.80;;;;;;5055599;28;20513;-57
2023/03/30 02:56:02;;;;;;;5.93;2.13;;;15.60;84.80;;;;;;5073421;28;20474;-56
2023/03/30 02:58:36;;;;;;;10.10;2.50;;;15.70;85.00;;;;;;5073478;28;20486;-56
2023/03/30 03:01:07;;;;;;;3.83;1.80;;;15.70;85.20;;;;;;5073615;28;20999;-56
2023/03/30 03:03:36;;;;;;;8.73;2.17;;;15.70;85.30;;;;;;5073411;28;20559;-56
2023/03/30 03:06:04;;;;;;;8.83;2.43;;;15.70;85.30;;;;;;5073334;28;20447;-57
2023/03/30 03:08:34;;;;;;;4.43;2.10;;;15.70;85.10;;;;;;5073362;28;20445;-56
2023/03/30 03:11:01;;;;;;;5.67;2.17;;;15.70;85.20;;;;;;5073325;28;20429;-56
2023/03/30 03:13:28;;;;;;;5.80;2.10;;;15.70;85.00;;;;;;5072560;28;20469;-56
2023/03/30 03:15:56;;;;;;;3.83;1.83;;;15.70;85.00;;;;;;5073343;28;20476;-56
2023/03/30 03:18:23;;;;;;;6.80;1.80;;;15.70;85.00;;;;;;5073285;28;20452;-57
2023/03/30 03:20:50;;;;;;;9.27;2.00;;;15.70;85.00;;;;;;5073501;28;20449;-56
2023/03/30 03:23:17;;;;;;;7.03;2.30;;;15.70;85.00;;;;;;5073330;28;20496;-57
2023/03/30 03:25:44;;;;;;;3.00;1.97;;;15.70;85.10;;;;;;5073285;28;20445;-56
2023/03/30 03:28:10;;;;;;;7.53;2.07;;;15.70;85.40;;;;;;5073171;28;20448;-56
2023/03/30 03:30:37;;;;;;;7.50;2.30;;;15.70;85.80;;;;;;5073082;28;20457;-56
2023/03/30 03:33:06;;;;;;;6.50;2.00;;;15.70;85.80;;;;;;5073081;28;20473;-56
2023/03/30 03:35:32;;;;;;;7.53;2.83;;;15.70;86.00;;;;;;5073134;28;20490;-56
2023/03/30 03:37:59;;;;;;;7.57;2.30;;;15.60;86.10;;;;;;5073042;28;20475;-57
2023/03/30 03:40:26;;;;;;;3.80;1.97;;;15.60;86.30;;;;;;5073015;28;20429;-56
2023/03/30 03:42:53;;;;;;;8.30;2.03;;;15.60;86.30;;;;;;5073032;28;20464;-56
2023/03/30 03:45:19;;;;;;;8.23;2.00;;;15.50;86.00;;;;;;5073142;28;20452;-56
2023/03/30 03:47:46;;;;;;;4.37;1.87;;;15.50;85.80;;;;;;5072734;28;20449;-56
2023/03/30 03:50:14;;;;;;;4.93;2.00;;;15.50;85.90;;;;;;5072969;28;20536;-56
2023/03/30 03:52:41;;;;;;;5.37;2.13;;;15.50;85.90;;;;;;5072883;28;20448;-57
2023/03/30 03:55:08;;;;;;;6.33;2.27;;;15.50;86.20;;;;;;5073067;28;20531;-56
2023/03/30 03:57:35;;;;;;;4.23;2.40;;;15.40;86.10;;;;;;5072514;28;20476;-56
2023/03/30 04:00:02;;;;;;;6.50;2.10;;;15.40;86.00;;;;;;5073158;28;20444;-56
2023/03/30 04:02:30;;;;;;;6.23;1.97;;;15.40;86.20;;;;;;5072670;28;20453;-57
2023/03/30 04:04:57;;;;;;;5.97;1.80;;;15.40;86.50;;;;;;5073003;28;20448;-56
2023/03/30 04:07:25;;;;;;;4.03;1.60;;;15.40;87.00;;;;;;5072888;28;20523;-56
2023/03/30 04:09:52;;;;;;;11.60;2.17;;;15.30;86.90;;;;;;5072686;28;20795;-57
2023/03/30 04:12:19;;;;;;;6.27;2.13;;;15.30;86.90;;;;;;5072717;28;20476;-56
2023/03/30 04:14:46;;;;;;;4.30;1.90;;;15.30;86.70;;;;;;5072718;28;20534;-56
2023/03/30 04:17:13;;;;;;;6.27;1.97;;;15.30;86.80;;;;;;5072440;28;20480;-56
2023/03/30 04:19:40;;;;;;;3.50;1.70;;;15.30;86.60;;;;;;5072768;28;20540;-56
2023/03/30 04:22:07;;;;;;;4.70;1.80;;;15.30;86.60;;;;;;5072608;28;20456;-56
2023/03/30 04:24:35;;;;;;;8.20;2.27;;;15.30;86.80;;;;;;5075306;28;20552;-56
2023/03/30 04:27:02;;;;;;;9.77;2.13;;;15.30;86.90;;;;;;5076273;28;20444;-56
2023/03/30 04:29:29;;;;;;;6.50;1.80;;;15.20;86.70;;;;;;5076147;28;20445;-56
2023/03/30 04:32:01;;;;;;;7.00;2.50;;;15.20;87.00;;;;;;5076157;28;20453;-56
2023/03/30 04:34:29;;;;;;;9.57;2.50;;;15.20;87.30;;;;;;5075994;28;20897;-56
2023/03/30 04:36:56;;;;;;;7.30;2.40;;;15.20;87.50;;;;;;5076011;28;20480;-56
2023/03/30 04:39:23;;;;;;;7.10;2.30;;;15.20;87.20;;;;;;5076065;28;20551;-56
2023/03/30 04:41:53;;;;;;;10.03;2.10;;;15.30;87.10;;;;;;5075749;28;20811;-56
2023/03/30 04:44:20;;;;;;;5.73;2.90;;;15.30;87.20;;;;;;5075461;28;20849;-56
2023/03/30 04:46:47;;;;;;;7.40;1.97;;;15.40;87.10;;;;;;5075850;28;20440;-56
2023/03/30 04:49:14;;;;;;;4.10;1.90;;;15.40;87.00;;;;;;5075731;28;20453;-56
2023/03/30 04:51:42;;;;;;;3.67;1.60;;;15.50;86.90;;;;;;5076040;28;20476;-56
2023/03/30 04:54:08;;;;;;;3.13;1.63;;;15.50;87.30;;;;;;5075562;28;20472;-56
2023/03/30 04:56:35;;;;;;;12.47;2.30;;;15.50;87.10;;;;;;5075344;28;20480;-56
2023/03/30 04:59:03;;;;;;;4.63;1.97;;;15.50;87.00;;;;;;5075583;28;20498;-56
2023/03/30 05:01:30;;;;;;;2.73;1.80;;;15.50;87.30;;;;;;5075544;28;20445;-56
2023/03/30 05:03:57;;;;;;;2.00;1.43;;;15.50;87.20;;;;;;5075770;28;20460;-56
2023/03/30 05:06:24;;;;;;;3.60;1.43;;;15.60;87.50;;;;;;5075462;28;20444;-56
2023/03/30 05:08:51;;;;;;;8.17;2.13;;;15.60;87.60;;;;;;5075366;28;20457;-56
2023/03/30 05:11:18;;;;;;;5.07;1.53;;;15.50;87.40;;;;;;5075298;28;20471;-56
2023/03/30 05:13:44;;;;;;;6.00;2.00;;;15.50;87.50;;;;;;5075321;28;20483;-56
2023/03/30 05:16:12;;;;;;;5.80;1.83;;;15.50;87.80;;;;;;5074900;28;20998;-56
2023/03/30 05:18:39;;;;;;;5.27;2.10;;;15.50;87.70;;;;;;5074885;28;20955;-56
2023/03/30 05:21:06;;;;;;;5.27;1.73;;;15.50;87.80;;;;;;5074828;28;20951;-56
2023/03/30 05:23:33;;;;;;;3.97;1.77;;;15.50;87.50;;;;;;5075152;28;20472;-56
2023/03/30 05:25:59;;;;;;;8.60;2.07;;;15.60;87.70;;;;;;5075143;28;20457;-56
2023/03/30 05:28:26;;;;;;;5.90;1.90;;;15.60;87.20;;;;;;5075180;28;20455;-56
2023/03/30 05:30:54;;;;;;;5.13;1.70;;;15.60;87.50;;;;;;5074907;28;20456;-56
2023/03/30 05:33:23;;;;;;;6.53;2.70;;;15.50;87.80;;;;;;5074811;28;20473;-56
2023/03/30 05:35:50;;;;;;;14.20;2.10;;;15.50;88.00;;;;;;5072424;28;20457;-57
2023/03/30 05:38:17;;;;;;;7.97;1.93;;;15.50;88.60;;;;;;5073124;28;20464;-56
2023/03/30 05:40:44;;;;;;;9.50;2.47;;;15.50;88.30;;;;;;5074537;28;20436;-56
2023/03/30 05:43:11;;;;;;;4.90;1.63;;;15.50;88.60;;;;;;5073659;28;20468;-56
2023/03/30 05:45:38;;;;;;;8.33;2.47;;;15.60;88.80;;;;;;5074802;28;20459;-56
2023/03/30 05:48:06;;;;;;;5.30;2.33;;;15.60;89.00;;;;;;5074666;28;20824;-56
2023/03/30 05:50:34;;;;;;;8.50;2.33;;;15.60;89.10;;;;;;5074522;28;20449;-56
2023/03/30 05:53:01;;;;;;;5.10;2.47;;;15.60;90.00;;;;;;5069333;28;20478;-57
2023/03/30 05:55:27;;;;;;;5.83;2.23;;;15.60;89.20;;;;;;5054599;28;20876;-56
2023/03/30 05:57:55;;;;;;;9.20;3.10;;;15.70;89.30;;;;;;5054730;28;20492;-57
2023/03/30 06:00:22;;;;;;;7.93;2.43;;;15.70;89.30;;;;;;5054765;28;20736;-57
2023/03/30 06:02:50;;;;;;;8.20;2.70;;;15.60;89.20;;;;;;5074277;28;20518;-56
2023/03/30 06:05:17;;;;;;;3.73;2.03;;;15.70;89.30;;;;;;5074337;28;20938;-56
2023/03/30 06:07:45;;;;;;;5.67;2.00;;;15.60;89.30;;;;;;5074662;28;20445;-56
2023/03/30 06:10:12;;;;;;;5.47;2.40;;;15.60;89.50;;;;;;5074855;28;20488;-56
2023/03/30 06:12:39;;;;;;;5.73;2.20;;;15.60;89.50;;;;;;5075524;28;20498;-57
2023/03/30 06:15:07;;;;;;;5.33;2.30;;;15.70;89.50;;;;;;5075650;28;20453;-56
2023/03/30 06:17:35;;;;;;;6.17;2.17;;;15.60;89.00;;;;;;5076159;28;20598;-56
2023/03/30 06:20:07;;;;;;;5.53;1.93;;;15.60;88.30;;;;;;5074789;28;20476;-56
2023/03/30 06:22:34;;;;;;;4.10;2.10;;;15.60;87.70;;;;;;5073771;28;20952;-57
2023/03/30 06:25:02;;;;;;;5.20;1.90;;;15.50;87.80;;;;;;5074348;28;20455;-56
2023/03/30 06:27:30;;;;;;;8.07;2.40;;;15.50;87.50;;;;;;5074108;28;20445;-56
2023/03/30 06:29:57;;;;;;;7.00;1.97;;;15.40;87.80;;;;;;5074153;28;20457;-56
2023/03/30 06:32:24;;;;;;;6.77;2.40;;;15.40;88.00;;;;;;5073772;28;20444;-56
2023/03/30 06:34:51;;;;;;;4.90;2.10;;;15.40;88.70;;;;;;5074428;28;20445;-56
2023/03/30 06:37:18;;;;;;;6.10;2.00;;;15.50;88.80;;;;;;5073686;28;20480;-56
2023/03/30 06:39:45;;;;;;;2.87;1.80;;;15.50;89.00;;;;;;5073444;28;20880;-56
2023/03/30 06:42:13;;;;;;;4.20;2.00;;;15.50;88.80;;;;;;5073695;28;20453;-56
2023/03/30 06:44:40;;;;;;;6.27;2.27;;;15.50;88.80;;;;;;5073213;28;20868;-56
2023/03/30 06:47:06;;;;;;;7.40;2.00;;;15.50;88.80;;;;;;5072821;28;20445;-56
2023/03/30 06:49:33;;;;;;;3.30;2.00;;;15.50;89.20;;;;;;5073424;28;20448;-56
2023/03/30 06:52:00;;;;;;;3.47;1.50;;;15.50;89.80;;;;;;5073230;28;20954;-56
2023/03/30 06:54:27;;;;;;;6.10;1.97;;;15.50;89.30;;;;;;5073068;28;21000;-56
2023/03/30 06:56:53;;;;;;;8.80;2.10;;;15.60;89.50;;;;;;5073165;28;21009;-56
2023/03/30 06:59:21;;;;;;;7.30;2.13;;;15.60;89.10;;;;;;5073461;28;20453;-56
2023/03/30 07:01:48;;;;;;;4.83;2.27;;;15.60;89.10;;;;;;5073392;28;20444;-56
2023/03/30 07:04:15;;;;;;;5.50;1.80;;;15.70;89.30;;;;;;5073036;28;20841;-56
2023/03/30 07:06:42;;;;;;;3.13;1.80;;;15.70;89.60;;;;;;5073457;28;20464;-56
2023/03/30 07:09:08;;;;;;;8.23;2.03;;;15.60;88.80;;;;;;5073399;28;20448;-56
2023/03/30 07:11:35;;;;;;;7.23;1.87;;;15.60;89.10;;;;;;5073266;28;20444;-56
2023/03/30 07:14:04;;;;;;;3.90;2.30;;;15.50;88.90;;;;;;5073387;28;20464;-56
2023/03/30 07:16:32;;;;;;;7.07;2.13;;;15.40;89.10;;;;;;5073300;28;20440;-56
2023/03/30 07:18:58;;;;;;;8.70;2.27;;;15.40;89.90;;;;;;5073071;28;20452;-56
2023/03/30 07:21:25;;;;;;;4.87;1.80;;;15.40;89.70;;;;;;5073450;28;20452;-56
2023/03/30 07:23:52;;;;;;;4.43;1.60;;;15.40;89.50;;;;;;5073025;28;21008;-56
2023/03/30 07:26:18;;;;;;;5.50;1.80;;;15.40;89.30;;;;;;5073326;28;20441;-56
2023/03/30 07:28:45;;;;;;;7.53;2.10;;;15.50;89.70;;;;;;5072816;28;20535;-56
2023/03/30 07:31:13;;;;;;;5.63;1.73;;;15.50;89.80;;;;;;5073963;28;20448;-56
2023/03/30 07:33:41;;;;;;;6.30;1.83;;;15.50;89.00;;;;;;5073020;28;20500;-56
2023/03/30 07:36:09;;;;;;;6.93;2.10;;;15.50;89.40;;;;;;5072990;28;20464;-56
2023/03/30 07:38:35;;;;;;;9.13;1.63;;;15.50;90.00;;;;;;5072774;28;20489;-55
2023/03/30 07:41:07;;;;;;;11.07;2.03;;;15.30;92.70;;;;;;5072580;28;20824;-55
2023/03/30 07:43:34;;;;;;;6.97;1.37;;;14.70;94.20;;;;;;5072973;28;20488;-55
2023/03/30 07:46:00;;;;;;;6.47;2.43;;;14.20;96.50;;;;;;5072932;28;20452;-54
2023/03/30 07:48:27;;;;;;;4.60;1.50;;;13.80;98.30;;;;;;5072910;28;20440;-55
2023/03/30 07:51:01;;;;;;;4.87;1.70;;;13.50;99.10;;;;;;5073129;28;20473;-54
2023/03/30 07:53:28;;;;;;;6.70;1.50;;;13.30;99.90;;;;;;5072547;28;20849;-55
2023/03/30 07:55:55;;;;;;;6.70;2.00;;;13.20;99.90;;;;;;5072561;28;20455;-55
2023/03/30 07:58:22;;;;;;;12.73;2.80;;;13.10;99.90;;;;;;5073625;28;20476;-56
2023/03/30 08:00:48;;;;;;;9.37;3.40;;;13.10;99.90;;;;;;5076280;28;20455;-55
2023/03/30 08:03:16;;;;;;;8.77;2.27;;;13.20;99.90;;;;;;5076561;28;20499;-55
2023/03/30 08:05:45;;;;;;;7.70;2.07;;;13.20;99.90;;;;;;5076764;28;20454;-56
2023/03/30 08:08:13;;;;;;;13.80;2.40;;;13.30;99.90;;;;;;5076492;28;20523;-55
2023/03/30 08:10:39;;;;;;;8.87;2.47;;;13.30;99.90;;;;;;5076424;28;20448;-56
2023/03/30 08:13:06;;;;;;;11.00;2.30;;;13.40;99.90;;;;;;5076313;28;20468;-55
2023/03/30 08:15:33;;;;;;;7.53;2.40;;;13.30;99.90;;;;;;5076416;28;20444;-55
2023/03/30 08:18:03;;;;;;;5.50;1.97;;;13.40;99.90;;;;;;5076249;28;20472;-56
2023/03/30 08:20:29;;;;;;;7.40;1.90;;;13.40;99.90;;;;;;5076290;28;20946;-56
2023/03/30 08:22:56;;;;;;;8.00;2.57;;;13.50;99.90;;;;;;5075842;28;20468;-56
2023/03/30 08:25:24;;;;;;;4.03;2.50;;;13.50;99.90;;;;;;5076181;28;20454;-56
2023/03/30 08:27:51;;;;;;;7.57;2.40;;;13.60;99.90;;;;;;5076081;28;20505;-56
2023/03/30 08:30:18;;;;;;;5.93;2.40;;;13.70;99.90;;;;;;5076078;28;20501;-56
2023/03/30 08:32:45;;;;;;;7.67;2.20;;;13.80;99.90;;;;;;5075656;28;20985;-56
2023/03/30 08:35:12;;;;;;;6.37;2.60;;;13.90;99.90;;;;;;5076004;28;20491;-55
2023/03/30 08:37:39;;;;;;;6.73;2.57;;;14.10;99.90;;;;;;5075798;28;20481;-56
2023/03/30 08:40:09;;;;;;;5.13;1.90;;;14.30;99.90;;;;;;5075441;28;20495;-56
2023/03/30 08:42:51;;;;;;;6.83;2.97;;;14.50;99.90;;;;;;5075852;28;20479;-56
2023/03/30 08:45:18;;;;;;;6.13;1.93;;;14.70;99.90;;;;;;5075842;28;20433;-56
2023/03/30 08:47:48;;;;;;;5.77;2.23;;;14.80;99.90;;;;;;5075842;28;20445;-56
2023/03/30 08:50:18;;;;;;;4.93;1.93;;;14.90;99.10;;;;;;5076282;28;20441;-55
2023/03/30 08:52:46;;;;;;;5.80;1.83;;;15.00;98.90;;;;;;5075924;28;20530;-56
2023/03/30 08:55:21;;;;;;;9.97;2.67;;;15.10;98.90;;;;;;5055152;28;20469;-55
2023/03/30 08:57:53;;;;;;;10.23;2.13;;;15.10;97.90;;;;;;5055493;28;20475;-56
2023/03/30 09:00:31;;;;;;;4.70;1.63;;;15.00;97.00;;;;;;5055256;28;20923;-55
2023/03/30 09:03:06;;;;;;;6.57;1.87;;;14.80;98.00;;;;;;5055511;28;20473;-56
2023/03/30 09:05:39;;;;;;;5.07;1.63;;;14.60;98.00;;;;;;5055464;28;20974;-56
2023/03/30 09:08:14;;;;;;;4.50;1.20;;;14.20;97.80;;;;;;5055331;28;20483;-55
2023/03/30 09:10:45;;;;;;;11.40;1.40;;;13.80;98.80;;;;;;5054312;28;20426;-55
2023/03/30 09:13:16;;;;;;;2.30;0.93;;;13.50;99.90;;;;;;5055291;28;20501;-55
2023/03/30 09:15:48;;;;;;;3.40;1.10;;;13.20;99.90;;;;;;5055613;28;20426;-55
2023/03/30 09:18:20;;;;;;;3.73;1.40;;;13.10;99.90;;;;;;5055287;28;20527;-55
2023/03/30 09:20:50;;;;;;;5.20;1.40;;;13.10;99.90;;;;;;5055136;28;20432;-55
2023/03/30 09:23:17;;;;;;;2.93;1.10;;;13.10;99.90;;;;;;5055045;28;20470;-56
2023/03/30 09:25:52;;;;;;;7.50;1.47;;;13.20;99.90;;;;;;5055124;28;20448;-55
2023/03/30 09:28:24;;;;;;;7.43;1.30;;;13.20;99.90;;;;;;5055079;28;20796;-56
2023/03/30 09:30:55;;;;;;;4.13;1.27;;;13.10;99.90;;;;;;5055007;28;20426;-56
2023/03/30 09:33:30;;;;;;;3.80;1.23;;;13.10;99.90;;;;;;5054713;28;20991;-56
2023/03/30 09:36:07;;;;;;;2.77;1.10;;;13.00;99.90;;;;;;5054782;28;20437;-56
2023/03/30 09:38:40;;;;;;;5.97;1.97;;;13.00;99.90;;;;;;5054524;28;20496;-55
2023/03/30 09:41:17;;;;;;;4.20;1.47;;;12.90;99.90;;;;;;5054685;28;20430;-56
2023/03/30 09:43:46;;;;;;;5.50;1.30;;;12.90;99.90;;;;;;5054652;28;20484;-56
2023/03/30 09:46:14;;;;;;;4.47;1.43;;;12.80;99.90;;;;;;5054669;28;20832;-55
2023/03/30 09:48:43;;;;;;;6.60;1.60;;;12.90;99.90;;;;;;5054585;28;20450;-56
2023/03/30 09:51:19;;;;;;;12.33;2.10;;;12.90;99.90;;;;;;5054584;28;20446;-56
2023/03/30 09:53:48;;;;;;;4.30;1.80;;;12.90;99.90;;;;;;5054488;28;20465;-55
2023/03/30 09:56:21;;;;;;;7.47;2.30;;;12.90;99.90;;;;;;5054208;28;20969;-55
2023/03/30 09:58:49;;;;;;;8.10;2.23;;;12.90;99.90;;;;;;5054355;28;20466;-56
2023/03/30 10:01:18;;;;;;;8.97;3.13;;;13.00;99.90;;;;;;5054759;28;20445;-56
2023/03/30 10:04:05;;;;;;;7.77;2.20;;;13.00;99.90;;;;;;5054288;28;20468;-56
2023/03/30 10:06:34;;;;;;;9.57;2.50;;;13.00;99.90;;;;;;5054357;28;20804;-55
2023/03/30 10:09:05;;;;;;;11.57;2.27;;;13.20;99.90;;;;;;5054217;28;20446;-56
2023/03/30 10:11:37;;;;;;;6.30;1.70;;;13.20;99.90;;;;;;5054154;28;20437;-56
2023/03/30 10:14:06;;;;;;;5.63;1.63;;;13.30;99.90;;;;;;5054110;28;20472;-56
2023/03/30 10:16:33;;;;;;;5.13;1.50;;;13.40;99.90;;;;;;5054186;28;20484;-56
2023/03/30 10:19:01;;;;;;;2.60;1.47;;;13.60;99.90;;;;;;5053672;28;21003;-56
2023/03/30 10:21:30;;;;;;;3.60;1.77;;;13.60;99.90;;;;;;5053753;28;20507;-56
2023/03/30 10:24:06;;;;;;;3.70;1.60;;;13.70;99.90;;;;;;5053934;28;20469;-56
2023/03/30 10:26:37;;;;;;;2.63;1.00;;;13.80;99.90;;;;;;5053967;28;20434;-55
2023/03/30 10:29:09;;;;;;;6.23;1.13;;;14.00;99.90;;;;;;5053831;28;20948;-55
2023/03/30 10:31:38;;;;;;;4.87;1.10;;;14.10;99.20;;;;;;5053847;28;20434;-55
2023/03/30 10:34:12;;;;;;;7.33;1.50;;;14.30;98.30;;;;;;5053797;28;20522;-55
2023/03/30 10:36:40;;;;;;;3.17;1.13;;;14.60;97.30;;;;;;5053807;28;20436;-55
2023/03/30 10:39:11;;;;;;;1.37;1.10;;;14.80;96.70;;;;;;5053389;28;20497;-55
2023/03/30 10:41:42;;;;;;;5.30;1.10;;;14.90;95.60;;;;;;5053610;28;20479;-55
2023/03/30 10:44:21;;;;;;;2.37;0.97;;;15.10;95.60;;;;;;5053596;28;20466;-55
2023/03/30 10:46:51;;;;;;;4.17;1.10;;;15.10;95.50;;;;;;5053631;28;20488;-55
2023/03/30 10:49:33;;;;;;;1.60;0.80;;;15.50;95.30;;;;;;5053495;28;20449;-55
2023/03/30 10:52:06;;;;;;;4.27;1.50;;;16.10;92.70;;;;;;5054145;28;20429;-55
2023/03/30 10:54:38;;;;;;;2.20;1.00;;;16.40;91.80;;;;;;5053203;28;20998;-55
2023/03/30 10:57:11;;;;;;;4.23;1.27;;;16.70;90.10;;;;;;5053467;28;20438;-55
2023/03/30 10:59:56;;;;;;;6.23;1.53;;;16.90;89.80;;;;;;5053357;28;20492;-55
2023/03/30 11:02:46;;;;;;;6.03;1.50;;;17.10;86.90;;;;;;5053524;28;20437;-56
2023/03/30 11:05:17;;;;;;;2.60;0.93;;;17.50;87.70;;;;;;5053075;28;20434;-55
2023/03/30 11:07:47;;;;;;;11.27;1.60;;;17.80;85.80;;;;;;5053356;28;20429;-55
2023/03/30 11:10:19;;;;;;;3.37;1.37;;;18.20;85.30;;;;;;5053186;28;20541;-56
2023/03/30 11:12:52;;;;;;;4.40;1.80;;;18.70;83.80;;;;;;5052885;28;20987;-56
2023/03/30 11:15:26;;;;;;;11.27;1.83;;;18.80;80.80;;;;;;5053295;28;20837;-55
2023/03/30 11:18:00;;;;;;;8.73;1.97;;;18.70;81.60;;;;;;5053296;28;20429;-55
2023/03/30 11:20:30;;;;;;;4.53;1.57;;;18.40;82.20;;;;;;5053206;28;20449;-55
2023/03/30 11:23:09;;;;;;;6.63;1.70;;;18.00;82.80;;;;;;5053387;28;20465;-56
2023/03/30 11:25:41;;;;;;;9.53;2.33;;;17.60;83.40;;;;;;5052856;28;20926;-55
2023/03/30 11:28:17;;;;;;;6.73;1.90;;;17.10;85.80;;;;;;5053152;28;20444;-55
2023/03/30 11:30:46;;;;;;;7.13;2.10;;;16.80;87.30;;;;;;5052848;28;20916;-55
2023/03/30 11:33:23;;;;;;;6.60;1.73;;;16.70;89.70;;;;;;5053741;28;20913;-55
2023/03/30 11:35:55;;;;;;;4.67;1.73;;;16.80;89.40;;;;;;5057180;28;20487;-55
2023/03/30 11:38:28;;;;;;;9.77;2.43;;;16.90;90.40;;;;;;5056768;28;20491;-55
2023/03/30 11:41:00;;;;;;;7.03;2.10;;;17.00;90.40;;;;;;5057220;28;20454;-55
2023/03/30 11:43:30;;;;;;;5.13;1.77;;;17.40;89.50;;;;;;5056997;28;20515;-55
2023/03/30 11:46:02;;;;;;;11.17;2.20;;;17.60;86.90;;;;;;5056937;28;20944;-55
2023/03/30 11:48:56;;;;;;;5.50;2.20;;;17.50;86.90;;;;;;5057322;28;20436;-55
2023/03/30 11:51:41;;;;;;;6.37;1.87;;;17.00;89.40;;;;;;5056937;28;20453;-54
2023/03/30 11:54:27;;;;;;;4.60;1.13;;;16.30;91.70;;;;;;5056757;28;20554;-54
2023/03/30 11:57:00;;;;;;;4.13;1.67;;;15.70;94.30;;;;;;5056800;28;20476;-55
2023/03/30 11:59:35;;;;;;;7.43;1.97;;;15.20;97.00;;;;;;5056629;28;20465;-54
2023/03/30 12:02:17;;;;;;;3.43;1.40;;;14.90;98.80;;;;;;5056672;28;20433;-54
2023/03/30 12:04:47;;;;;;;4.20;1.37;;;14.50;99.40;;;;;;5056560;28;20519;-55
2023/03/30 12:07:29;;;;;;;6.13;1.60;;;14.20;99.70;;;;;;5056208;28;20911;-55
2023/03/30 12:09:59;;;;;;;8.70;2.00;;;14.10;99.90;;;;;;5056743;28;20430;-56
2023/03/30 12:12:31;;;;;;;5.90;2.03;;;14.00;99.90;;;;;;5056542;28;20449;-55
2023/03/30 12:15:12;;;;;;;3.70;1.83;;;13.90;99.90;;;;;;5056305;28;20982;-54
2023/03/30 12:17:47;;;;;;;3.20;1.23;;;13.90;99.90;;;;;;5056383;28;20425;-55
2023/03/30 12:20:35;;;;;;;3.17;1.00;;;13.80;99.90;;;;;;5056348;28;20523;-55
2023/03/30 12:23:15;;;;;;;2.00;1.13;;;13.80;99.90;;;;;;5056394;28;20462;-55
2023/03/30 12:26:05;;;;;;;4.57;1.63;;;13.80;99.90;;;;;;5056255;28;20426;-55
2023/03/30 12:28:44;;;;;;;7.50;1.80;;;13.80;99.90;;;;;;5055916;28;20880;-55
2023/03/30 12:31:12;;;;;;;1.43;1.30;;;14.30;99.90;;;;;;5056236;28;20432;-55
2023/03/30 12:33:47;;;;;;;2.30;1.00;;;15.20;99.90;;;;;;5055754;28;20497;-55
2023/03/30 12:36:36;;;;;;;3.90;1.13;;;15.60;97.80;;;;;;5056108;28;20429;-55
2023/03/30 12:39:08;;;;;;;1.80;1.00;;;16.70;97.10;;;;;;5055887;28;20489;-55
2023/03/30 12:41:41;;;;;;;2.57;0.97;;;17.80;94.00;;;;;;5056093;28;20430;-55
2023/03/30 12:44:35;;;;;;;1.03;0.70;;;19.10;90.60;;;;;;5056156;28;20496;-55
2023/03/30 12:47:22;;;;;;;3.60;1.33;;;18.90;82.50;;;;;;5056318;28;20430;-55
2023/03/30 12:50:08;;;;;;;3.90;0.90;;;18.30;85.50;;;;;;5056289;28;20444;-55
2023/03/30 12:52:41;;;;;;;3.60;0.70;;;17.60;85.80;;;;;;5055781;28;20465;-55
2023/03/30 12:55:22;;;;;;;4.87;1.53;;;17.20;87.60;;;;;;5055897;28;20797;-55
2023/03/30 12:58:04;;;;;;;3.00;0.80;;;17.00;89.60;;;;;;5055593;28;20429;-55
2023/03/30 13:00:48;;;;;;;2.33;1.23;;;17.60;85.60;;;;;;5055632;28;20473;-55
2023/03/30 13:03:36;;;;;;;1.37;0.90;;;18.30;82.30;;;;;;5055636;28;20488;-55
2023/03/30 13:06:07;;;;;;;3.23;1.33;;;18.70;83.00;;;;;;5055503;28;20483;-56